Time;durP1;ratioP1;P1;durP2;ratioP2;P2;SDS_P1;SDS_P2;PMS_P1;PMS_P2;Temp;Humidity;BMP_temperature;BMP_pressure;BME280_temperature;BME280_humidity;BME280_pressure;Samples;Min_cycle;Max_cycle;Signal;HPM_P1;HPM_P2
2021/05/31 00:01:28;;;;;;;4.97;2.75;;;;;;;11.86;71.21;99477.09;1720301;82;21130;-77
2021/05/31 00:03:55;;;;;;;5.70;2.50;;;;;;;11.76;71.38;99473.50;1723740;82;21110;-76
2021/05/31 00:06:21;;;;;;;4.17;2.87;;;;;;;11.77;71.33;99479.99;1726923;82;21062;-77
2021/05/31 00:08:49;;;;;;;8.78;3.30;;;;;;;11.83;71.27;99484.44;1727752;82;21105;-77
2021/05/31 00:11:18;;;;;;;5.15;3.20;;;;;;;11.77;71.51;99481.81;1724045;82;21324;-78
2021/05/31 00:13:48;;;;;;;5.50;2.92;;;;;;;11.71;71.78;99487.09;1710523;82;21617;-78
2021/05/31 00:16:15;;;;;;;4.95;3.10;;;;;;;11.79;71.69;99484.70;1728672;82;21082;-78
2021/05/31 00:18:43;;;;;;;6.58;3.12;;;;;;;11.76;71.84;99486.25;1729525;82;21022;-76
2021/05/31 00:21:09;;;;;;;4.97;2.98;;;;;;;11.69;71.92;99483.75;1726992;82;21531;-78
2021/05/31 00:23:37;;;;;;;3.87;2.92;;;;;;;11.68;72.02;99487.85;1724930;82;21629;-77
2021/05/31 00:26:03;;;;;;;5.60;3.00;;;;;;;11.76;71.96;99485.42;1728586;82;21533;-77
2021/05/31 00:28:31;;;;;;;5.85;3.05;;;;;;;11.72;72.12;99483.98;1728605;82;22189;-77
2021/05/31 00:30:58;;;;;;;5.08;3.00;;;;;;;11.62;72.39;99491.34;1728608;82;21042;-77
2021/05/31 00:33:26;;;;;;;5.67;3.02;;;;;;;11.63;72.51;99489.53;1726016;82;21051;-77
2021/05/31 00:35:52;;;;;;;7.00;3.10;;;;;;;11.71;72.50;99487.59;1727238;82;21054;-74
2021/05/31 00:38:20;;;;;;;7.50;2.92;;;;;;;11.64;72.73;99490.72;1729773;82;21051;-74
2021/05/31 00:40:48;;;;;;;5.75;2.98;;;;;;;11.61;72.85;99492.77;1730043;81;21105;-85
2021/05/31 00:43:14;;;;;;;5.67;3.50;;;;;;;11.69;72.87;99492.16;1729937;82;21066;-86
2021/05/31 00:45:41;;;;;;;6.85;3.25;;;;;;;11.70;72.97;99485.91;1731596;82;21062;-85
2021/05/31 00:48:08;;;;;;;7.25;3.00;;;;;;;11.64;73.11;99488.56;1730544;82;21030;-84
2021/05/31 00:50:34;;;;;;;4.87;3.20;;;;;;;11.60;73.33;99489.28;1729396;82;21070;-85
2021/05/31 00:53:02;;;;;;;5.17;2.90;;;;;;;11.72;73.13;99491.94;1728427;82;21347;-84
2021/05/31 00:55:29;;;;;;;9.03;4.15;;;;;;;11.71;73.15;99485.77;1726291;82;21395;-83
2021/05/31 00:57:57;;;;;;;6.17;3.30;;;;;;;11.66;73.17;99485.79;1727976;82;21574;-84
2021/05/31 01:00:26;;;;;;;8.08;3.10;;;;;;;11.63;73.26;99491.68;1714763;82;21086;-84
2021/05/31 01:02:52;;;;;;;6.00;3.40;;;;;;;11.72;73.10;99481.34;1729827;82;21186;-83
2021/05/31 01:05:19;;;;;;;5.72;3.40;;;;;;;11.65;73.36;99492.91;1697845;82;21130;-84
2021/05/31 01:07:50;;;;;;;5.45;3.22;;;;;;;11.58;73.39;99495.67;1700527;84;21560;-84
2021/05/31 01:10:22;;;;;;;4.37;3.20;;;;;;;11.63;73.26;99485.55;1695466;84;21063;-83
2021/05/31 01:13:03;;;;;;;4.00;3.08;;;;;;;11.69;73.09;99489.05;1696557;84;21046;-83
2021/05/31 01:15:39;;;;;;;5.50;3.17;;;;;;;11.64;73.19;99493.38;1695904;84;21534;-82
2021/05/31 01:18:28;;;;;;;7.55;3.10;;;;;;;11.61;73.35;99505.55;1691965;84;21093;-83
2021/05/31 01:21:16;;;;;;;9.88;4.45;;;;;;;11.72;73.00;99501.20;1694712;84;21062;-82
2021/05/31 01:23:47;;;;;;;5.90;3.40;;;;;;;11.68;73.09;99505.06;1695541;84;21047;-83
2021/05/31 01:26:17;;;;;;;6.87;3.10;;;;;;;11.60;73.42;99507.83;1692542;84;21089;-83
2021/05/31 01:29:01;;;;;;;7.33;3.40;;;;;;;11.66;73.36;99500.36;1637971;87;21038;-84
2021/05/31 01:31:49;;;;;;;5.37;3.08;;;;;;;11.75;73.14;99505.78;1629791;87;21618;-84
2021/05/31 01:34:23;;;;;;;6.45;3.40;;;;;;;11.71;73.19;99503.48;1688877;84;21060;-84
2021/05/31 01:36:54;;;;;;;5.10;3.20;;;;;;;11.61;73.47;99506.88;1692534;84;21594;-83
2021/05/31 01:39:24;;;;;;;8.63;3.70;;;;;;;11.69;73.09;99501.43;1691639;84;21590;-83
2021/05/31 01:41:52;;;;;;;7.97;3.50;;;;;;;11.67;72.71;99506.02;1695459;84;21150;-83
2021/05/31 01:44:19;;;;;;;4.33;2.98;;;;;;;11.57;72.73;99504.57;1692344;84;21058;-80
2021/05/31 01:46:47;;;;;;;6.37;3.10;;;;;;;11.52;72.71;99505.41;1693306;84;21135;-82
2021/05/31 01:49:13;;;;;;;5.10;2.77;;;;;;;11.60;72.58;99511.80;1690538;84;21629;-80
2021/05/31 01:51:40;;;;;;;7.15;3.40;;;;;;;11.56;72.82;99509.03;1694335;84;22222;-80
2021/05/31 01:54:11;;;;;;;4.00;3.12;;;;;;;11.49;73.20;99514.44;1693558;84;21605;-80
2021/05/31 01:56:38;;;;;;;6.30;3.45;;;;;;;11.50;73.46;99513.48;1694344;84;21107;-80
2021/05/31 01:59:06;;;;;;;6.62;3.00;;;;;;;11.62;73.23;99516.51;1695540;84;21022;-80
2021/05/31 02:01:33;;;;;;;5.40;3.40;;;;;;;11.62;72.93;99521.80;1684524;84;21202;-80
2021/05/31 02:04:00;;;;;;;4.33;2.83;;;;;;;11.54;72.78;99525.52;1701360;82;21682;-81
2021/05/31 02:06:27;;;;;;;5.22;3.27;;;;;;;11.52;72.73;99522.16;1716599;82;21590;-79
2021/05/31 02:08:53;;;;;;;7.42;3.40;;;;;;;11.56;72.54;99522.28;1715469;82;21610;-79
2021/05/31 02:11:33;;;;;;;5.83;2.98;;;;;;;11.48;72.68;99523.34;1724747;82;21106;-80
2021/05/31 02:14:04;;;;;;;3.67;2.87;;;;;;;11.39;72.96;99532.01;1717457;82;21134;-80
2021/05/31 02:16:35;;;;;;;5.55;3.45;;;;;;;11.49;72.82;99526.36;1723728;82;21003;-80
2021/05/31 02:19:02;;;;;;;6.05;4.50;;;;;;;11.46;72.94;99530.58;1717122;82;21102;-79
2021/05/31 02:21:29;;;;;;;6.85;3.98;;;;;;;11.40;73.04;99524.44;1722369;82;21082;-80
2021/05/31 02:23:55;;;;;;;9.63;4.42;;;;;;;11.39;73.21;99524.89;1722063;82;21070;-79
2021/05/31 02:26:22;;;;;;;9.50;4.30;;;;;;;11.48;73.09;99525.98;1718513;82;21042;-79
2021/05/31 02:28:49;;;;;;;7.70;4.22;;;;;;;11.43;73.12;99521.53;1710179;82;21119;-79
2021/05/31 02:31:16;;;;;;;9.98;3.77;;;;;;;11.34;73.32;99518.28;1716189;82;21046;-80
2021/05/31 02:33:47;;;;;;;7.60;3.70;;;;;;;11.36;73.30;99519.84;1721262;82;21032;-78
2021/05/31 02:36:14;;;;;;;6.37;3.90;;;;;;;11.39;73.12;99518.27;1716296;82;21034;-77
2021/05/31 02:38:41;;;;;;;6.15;3.00;;;;;;;11.31;73.35;99525.48;1717424;82;21064;-78
2021/05/31 02:41:09;;;;;;;9.00;3.65;;;;;;;11.27;73.49;99536.45;1715676;82;21059;-78
2021/05/31 02:43:35;;;;;;;6.78;3.25;;;;;;;11.36;73.40;99541.03;1715421;82;21126;-79
2021/05/31 02:46:02;;;;;;;5.78;3.65;;;;;;;11.36;73.40;99541.52;1728017;82;21062;-79
2021/05/31 02:48:28;;;;;;;5.83;3.45;;;;;;;11.30;73.55;99546.33;1725743;82;21099;-79
2021/05/31 02:50:56;;;;;;;4.97;3.30;;;;;;;11.37;73.29;99532.59;1713295;82;21106;-80
2021/05/31 02:53:25;;;;;;;7.15;3.20;;;;;;;11.48;73.03;99533.94;1712660;82;21052;-80
2021/05/31 02:55:51;;;;;;;7.67;3.45;;;;;;;11.45;72.96;99541.64;1718126;82;21022;-80
2021/05/31 02:58:18;;;;;;;6.55;3.05;;;;;;;11.39;73.11;99533.33;1719631;82;21062;-80
2021/05/31 03:00:44;;;;;;;5.85;3.27;;;;;;;11.42;72.85;99535.27;1718716;82;21686;-79
2021/05/31 03:03:11;;;;;;;7.12;3.52;;;;;;;11.42;72.98;99535.27;1723976;82;21642;-81
2021/05/31 03:05:39;;;;;;;6.00;3.00;;;;;;;11.37;73.19;99536.56;1736619;82;21090;-81
2021/05/31 03:08:06;;;;;;;5.70;3.40;;;;;;;11.35;73.37;99536.69;1728630;82;21043;-80
2021/05/31 03:10:33;;;;;;;6.22;3.50;;;;;;;11.47;73.18;99543.70;1704829;82;21056;-81
2021/05/31 03:13:00;;;;;;;6.62;3.65;;;;;;;11.48;72.95;99537.91;1744203;82;21067;-80
2021/05/31 03:15:27;;;;;;;7.10;3.17;;;;;;;11.44;72.97;99532.49;1736881;82;21078;-83
2021/05/31 03:17:53;;;;;;;5.53;3.50;;;;;;;11.48;72.67;99530.82;1736341;82;21038;-79
2021/05/31 03:20:25;;;;;;;5.12;3.80;;;;;;;11.55;72.60;99534.33;1719869;82;21102;-80
2021/05/31 03:22:51;;;;;;;5.20;3.40;;;;;;;11.50;72.72;99528.55;1690889;82;21546;-80
2021/05/31 03:25:17;;;;;;;5.55;3.22;;;;;;;11.51;72.72;99517.83;1688134;85;21058;-81
2021/05/31 03:27:44;;;;;;;5.95;3.37;;;;;;;11.69;72.58;99526.13;1686191;83;21566;-82
2021/05/31 03:30:13;;;;;;;4.28;2.98;;;;;;;11.74;72.61;99527.94;1682489;85;21562;-81
2021/05/31 03:32:39;;;;;;;6.05;3.55;;;;;;;11.74;72.57;99528.40;1689465;82;21024;-82
2021/05/31 03:35:08;;;;;;;7.12;3.60;;;;;;;11.73;72.42;99534.19;1688246;85;21048;-80
2021/05/31 03:37:36;;;;;;;5.87;3.27;;;;;;;11.82;72.23;99533.12;1720464;82;21062;-80
2021/05/31 03:40:03;;;;;;;7.75;4.05;;;;;;;11.86;72.04;99531.91;1737041;82;21082;-80
2021/05/31 03:42:30;;;;;;;6.10;3.40;;;;;;;11.82;72.18;99536.59;1729583;82;21630;-80
2021/05/31 03:44:57;;;;;;;5.33;3.60;;;;;;;11.79;72.06;99539.47;1736745;82;21530;-80
2021/05/31 03:47:23;;;;;;;5.17;3.65;;;;;;;11.92;72.02;99538.88;1734930;82;21593;-80
2021/05/31 03:49:50;;;;;;;8.30;3.77;;;;;;;12.04;71.78;99530.45;1698470;82;21574;-80
2021/05/31 03:52:17;;;;;;;7.60;3.58;;;;;;;12.02;71.67;99538.17;1691401;82;21595;-80
2021/05/31 03:54:43;;;;;;;7.78;3.30;;;;;;;11.99;71.80;99539.75;1693900;83;21604;-81
2021/05/31 03:57:10;;;;;;;6.05;3.65;;;;;;;12.05;71.56;99545.41;1716727;83;21635;-82
2021/05/31 03:59:36;;;;;;;7.05;3.65;;;;;;;12.19;71.28;99544.80;1730504;82;21625;-81
2021/05/31 04:02:03;;;;;;;8.20;3.77;;;;;;;12.19;71.46;99546.95;1706458;82;21536;-81
2021/05/31 04:04:39;;;;;;;3.80;3.12;;;;;;;12.18;71.34;99535.98;1715599;83;21120;-81
2021/05/31 04:11:33;;;;;;;6.72;3.45;;;;;;;12.21;70.97;99534.42;1710499;82;22324;-74
2021/05/31 04:12:14;;;;;;;5.55;3.58;;;;;;;12.33;70.70;99527.74;1718421;82;21076;-78
2021/05/31 04:14:41;;;;;;;7.92;3.08;;;;;;;12.27;70.93;99533.91;1720223;82;21059;-79
2021/05/31 04:17:09;;;;;;;5.65;3.40;;;;;;;12.31;70.67;99521.24;1715038;82;21054;-79
2021/05/31 04:19:37;;;;;;;6.58;3.60;;;;;;;12.44;69.87;99523.73;1707126;83;21018;-78
2021/05/31 04:22:03;;;;;;;4.45;3.12;;;;;;;12.40;69.52;99525.79;1728875;82;21031;-78
2021/05/31 04:24:30;;;;;;;5.20;3.15;;;;;;;12.33;69.55;99531.72;1732703;82;21070;-78
2021/05/31 04:26:56;;;;;;;4.62;3.20;;;;;;;12.33;69.64;99534.38;1715531;82;21064;-78
2021/05/31 04:29:22;;;;;;;5.80;2.85;;;;;;;12.46;69.42;99540.38;1724361;82;21030;-78
2021/05/31 04:31:49;;;;;;;5.97;3.10;;;;;;;12.53;69.27;99538.06;1728112;81;21042;-78
2021/05/31 04:34:15;;;;;;;5.85;3.47;;;;;;;12.54;69.15;99547.21;1736123;81;21006;-78
2021/05/31 04:36:43;;;;;;;8.18;3.10;;;;;;;12.58;68.75;99547.34;1735027;82;21561;-79
2021/05/31 04:39:09;;;;;;;5.65;3.02;;;;;;;12.62;68.81;99543.46;1725845;82;21554;-80
2021/05/31 04:41:37;;;;;;;4.03;3.10;;;;;;;12.85;68.51;99547.36;1717966;82;21673;-79
2021/05/31 04:44:05;;;;;;;6.90;3.55;;;;;;;12.99;68.01;99549.33;1718823;83;21549;-80
2021/05/31 04:46:32;;;;;;;5.65;3.40;;;;;;;13.01;67.91;99548.73;1734239;82;21090;-82
2021/05/31 04:49:01;;;;;;;6.95;3.30;;;;;;;13.02;67.66;99547.73;1730077;82;21053;-82
2021/05/31 04:51:26;;;;;;;6.03;3.62;;;;;;;13.08;67.76;99552.53;1726005;82;21098;-83
2021/05/31 04:53:54;;;;;;;5.42;3.60;;;;;;;13.22;67.92;99545.59;1713831;82;21090;-83
2021/05/31 04:56:20;;;;;;;6.40;3.47;;;;;;;13.42;67.84;99543.91;1736822;82;21091;-80
2021/05/31 04:58:46;;;;;;;7.60;3.85;;;;;;;13.43;67.45;99552.23;1724846;82;21146;-80
2021/05/31 05:01:13;;;;;;;8.10;4.10;;;;;;;13.32;67.67;99555.42;1723538;82;21635;-78
2021/05/31 05:03:40;;;;;;;5.33;3.80;;;;;;;13.28;67.43;99553.52;1719175;82;21090;-78
2021/05/31 05:06:06;;;;;;;4.33;3.60;;;;;;;13.28;67.43;99553.52;1710951;83;21094;-78
2021/05/31 05:08:34;;;;;;;7.37;4.53;;;;;;;13.24;67.18;99548.94;1713561;84;21131;-78
2021/05/31 05:11:00;;;;;;;4.22;3.70;;;;;;;13.09;67.65;99551.10;1713383;82;21041;-77
2021/05/31 05:13:26;;;;;;;7.75;3.87;;;;;;;13.18;67.88;99549.45;1713900;82;21023;-78
2021/05/31 05:15:54;;;;;;;8.08;3.83;;;;;;;13.18;67.88;99549.45;1712386;82;21100;-78
2021/05/31 05:18:21;;;;;;;6.97;4.15;;;;;;;13.31;67.94;99551.08;1711330;84;21084;-78
2021/05/31 05:20:47;;;;;;;8.65;3.80;;;;;;;13.30;67.65;99548.06;1712371;82;21036;-77
2021/05/31 05:23:13;;;;;;;4.37;3.47;;;;;;;13.18;67.93;99552.61;1712706;83;21041;-79
2021/05/31 05:25:39;;;;;;;6.87;3.90;;;;;;;13.18;67.93;99552.61;1727398;82;21550;-78
2021/05/31 05:28:06;;;;;;;6.83;4.53;;;;;;;13.30;67.80;99552.05;1718055;82;21635;-78
2021/05/31 05:30:33;;;;;;;15.08;4.62;;;;;;;13.53;67.68;99557.61;1728189;82;21568;-78
2021/05/31 05:33:00;;;;;;;7.62;4.37;;;;;;;13.53;67.68;99557.61;1740720;82;21051;-79
2021/05/31 05:35:41;;;;;;;6.50;3.80;;;;;;;13.59;67.68;99554.90;1740927;82;21562;-78
2021/05/31 05:41:14;;;;;;;7.30;4.53;;;;;;;13.55;66.66;99556.97;1711574;84;21155;-79
2021/05/31 05:43:44;;;;;;;6.33;4.05;;;;;;;13.39;66.91;99561.44;1711886;82;21095;-80
2021/05/31 05:46:22;;;;;;;9.55;4.95;;;;;;;13.26;67.11;99554.98;1711250;83;21063;-79
2021/05/31 05:48:31;;;;;;;7.95;4.50;;;;;;;13.37;67.44;99558.56;1711325;83;21043;-88
2021/05/31 05:51:06;;;;;;;6.25;4.00;;;;;;;13.54;67.59;99555.31;1711612;84;21630;-85
2021/05/31 05:53:41;;;;;;;7.03;4.58;;;;;;;13.72;67.79;99566.63;1724218;82;21067;-79
2021/05/31 05:56:20;;;;;;;6.00;3.98;;;;;;;14.01;67.35;99559.28;1721791;82;21024;-81
2021/05/31 05:58:47;;;;;;;6.90;4.10;;;;;;;14.42;66.63;99554.75;1731622;82;21604;-80
2021/05/31 06:01:14;;;;;;;4.95;3.75;;;;;;;14.73;64.46;99562.19;1723687;82;22326;-86
2021/05/31 06:03:41;;;;;;;6.80;3.52;;;;;;;14.72;63.24;99557.01;1714816;82;21546;-82
2021/05/31 06:06:07;;;;;;;7.80;4.00;;;;;;;14.55;63.05;99566.47;1725605;82;21044;-83
2021/05/31 06:08:35;;;;;;;6.80;4.03;;;;;;;14.39;63.28;99558.53;1728252;82;21039;-82
2021/05/31 06:11:03;;;;;;;6.10;3.67;;;;;;;14.36;63.26;99560.63;1717387;81;21098;-79
2021/05/31 06:13:29;;;;;;;8.65;4.12;;;;;;;14.00;63.48;99520.37;1721002;81;21051;-79
2021/05/31 06:16:00;;;;;;;7.20;4.17;;;;;;;14.20;63.97;99562.48;1715769;82;21342;-82
2021/05/31 06:18:24;;;;;;;7.20;4.17;;;;;;;14.23;63.60;99563.06;1714859;82;21050;-80
2021/05/31 06:20:50;;;;;;;7.55;3.90;;;;;;;14.28;64.32;99563.14;1727222;82;21103;-82
2021/05/31 06:23:17;;;;;;;10.38;3.60;;;;;;;14.43;63.21;99560.44;1719364;82;21051;-82
2021/05/31 06:25:43;;;;;;;7.95;3.60;;;;;;;14.45;62.70;99561.63;1717196;81;21604;-83
2021/05/31 06:28:09;;;;;;;6.55;3.95;;;;;;;14.31;62.18;99554.88;1729697;82;21051;-83
2021/05/31 06:30:36;;;;;;;7.97;4.22;;;;;;;14.18;62.12;99560.44;1725116;81;21065;-83
2021/05/31 06:33:03;;;;;;;6.50;3.70;;;;;;;14.01;62.53;99564.59;1728496;82;21179;-88
2021/05/31 06:35:30;;;;;;;8.60;4.17;;;;;;;14.01;62.98;99565.42;1731058;81;22160;-85
2021/05/31 06:37:57;;;;;;;6.55;3.95;;;;;;;14.02;62.64;99571.60;1721779;82;21569;-84
2021/05/31 06:40:24;;;;;;;7.30;3.92;;;;;;;13.98;63.26;99568.84;1712457;81;21120;-84
2021/05/31 06:42:51;;;;;;;7.05;3.85;;;;;;;14.00;62.89;99562.91;1730139;82;21592;-79
2021/05/31 06:45:23;;;;;;;7.00;3.83;;;;;;;13.98;62.72;99568.84;1713823;82;21023;-81
2021/05/31 06:47:56;;;;;;;9.50;3.80;;;;;;;14.00;62.23;99566.42;1714281;82;21059;-82
2021/05/31 06:50:24;;;;;;;6.47;3.77;;;;;;;13.93;62.17;99571.42;1716341;82;21619;-82
2021/05/31 06:52:50;;;;;;;8.55;3.83;;;;;;;13.85;62.37;99567.27;1731973;81;21083;-82
2021/05/31 06:55:18;;;;;;;5.78;3.30;;;;;;;13.79;63.15;99568.30;1729985;82;21043;-81
2021/05/31 06:57:47;;;;;;;7.03;3.90;;;;;;;13.85;62.73;99569.93;1718506;82;21075;-80
2021/05/31 07:00:14;;;;;;;9.23;3.95;;;;;;;13.98;62.67;99569.70;1721270;82;21107;-80
2021/05/31 07:02:41;;;;;;;6.30;3.60;;;;;;;14.00;62.86;99576.20;1725242;81;21570;-79
2021/05/31 07:05:10;;;;;;;6.58;3.85;;;;;;;14.03;62.90;99565.31;1727250;82;21102;-82
2021/05/31 07:07:37;;;;;;;6.70;3.80;;;;;;;14.14;62.72;99563.85;1736613;81;21035;-82
2021/05/31 07:10:05;;;;;;;5.22;3.85;;;;;;;14.36;62.23;99562.81;1745574;81;21074;-81
2021/05/31 07:12:32;;;;;;;6.05;3.77;;;;;;;14.67;62.47;99560.08;1734522;82;21023;-79
2021/05/31 07:15:03;;;;;;;8.13;4.03;;;;;;;14.97;59.84;99561.41;1730738;81;21070;-79
2021/05/31 07:17:27;;;;;;;6.78;3.45;;;;;;;14.93;58.78;99565.34;1730555;82;21048;-80
2021/05/31 07:19:54;;;;;;;5.67;3.20;;;;;;;14.77;59.00;99565.89;1733095;81;21581;-80
2021/05/31 07:22:22;;;;;;;5.08;3.55;;;;;;;14.65;59.78;99571.34;1732663;82;21063;-80
2021/05/31 07:24:50;;;;;;;7.25;3.20;;;;;;;14.69;58.81;99563.92;1719692;82;21549;-80
2021/05/31 07:27:16;;;;;;;5.85;3.22;;;;;;;14.77;58.65;99564.08;1727325;81;21615;-80
2021/05/31 07:29:43;;;;;;;4.53;3.20;;;;;;;14.82;58.01;99576.48;1726253;82;21649;-81
2021/05/31 07:32:10;;;;;;;5.42;3.20;;;;;;;14.83;57.38;99566.16;1738636;82;21027;-81
2021/05/31 07:34:36;;;;;;;7.47;3.22;;;;;;;14.59;58.19;99517.30;1743073;82;21082;-81
2021/05/31 07:37:03;;;;;;;5.42;3.30;;;;;;;15.06;58.52;99569.88;1723589;81;21549;-80
2021/05/31 07:39:29;;;;;;;6.03;3.20;;;;;;;15.33;58.49;99569.63;1728284;82;21574;-81
2021/05/31 07:41:56;;;;;;;5.45;3.10;;;;;;;15.61;58.01;99565.20;1740605;82;21571;-81
2021/05/31 07:44:23;;;;;;;4.90;3.25;;;;;;;15.79;56.92;99570.61;1733925;81;21558;-82
2021/05/31 07:46:49;;;;;;;6.65;2.85;;;;;;;15.89;56.48;99571.48;1737635;82;21059;-82
2021/05/31 07:49:15;;;;;;;4.58;2.98;;;;;;;16.01;55.65;99567.26;1728360;81;21003;-80
2021/05/31 07:51:44;;;;;;;3.87;3.20;;;;;;;15.94;55.90;99571.02;1723337;82;21095;-80
2021/05/31 07:54:11;;;;;;;4.83;3.08;;;;;;;15.78;55.57;99566.77;1718951;81;21088;-80
2021/05/31 07:56:37;;;;;;;6.58;3.10;;;;;;;15.57;56.18;99569.16;1724777;82;21053;-81
2021/05/31 07:59:04;;;;;;;4.37;2.80;;;;;;;15.40;56.64;99581.41;1739825;82;21161;-79
2021/05/31 08:01:31;;;;;;;6.05;2.70;;;;;;;15.27;56.77;99572.39;1727009;81;21066;-80
2021/05/31 08:03:59;;;;;;;3.95;2.77;;;;;;;15.22;56.99;99578.13;1726658;82;21067;-79
2021/05/31 08:06:26;;;;;;;5.33;2.83;;;;;;;15.18;57.18;99580.73;1726370;81;21015;-79
2021/05/31 08:08:52;;;;;;;5.10;2.98;;;;;;;15.16;57.06;99580.03;1733199;82;21067;-79
2021/05/31 08:11:19;;;;;;;4.47;2.40;;;;;;;15.10;57.39;99577.92;1734459;82;21155;-80
2021/05/31 08:13:46;;;;;;;4.33;2.72;;;;;;;15.10;57.32;99581.09;1733893;82;21030;-80
2021/05/31 09:10:45;;;;;;;3.72;2.10;;;;;;;16.58;53.25;99601.78;1773749;79;23414;-78
2021/05/31 09:13:39;;;;;;;2.77;2.10;;;;;;;16.50;52.77;99603.87;1752245;80;21074;-80
2021/05/31 09:16:19;;;;;;;4.00;2.33;;;;;;;16.44;52.97;99600.46;1730870;82;21042;-79
2021/05/31 09:18:50;;;;;;;2.92;2.10;;;;;;;16.26;52.65;99599.59;1749208;80;21017;-78
2021/05/31 09:21:33;;;;;;;3.85;2.10;;;;;;;15.96;53.30;99602.87;1738011;82;21598;-79
2021/05/31 09:24:03;;;;;;;2.30;1.97;;;;;;;15.75;54.15;99606.56;1729624;80;21106;-80
2021/05/31 09:26:30;;;;;;;3.50;2.10;;;;;;;15.56;53.67;99594.98;1736356;82;21585;-79
2021/05/31 09:28:58;;;;;;;5.03;2.33;;;;;;;15.63;53.98;99603.73;1733695;82;21081;-79
2021/05/31 09:31:26;;;;;;;4.17;3.10;;;;;;;15.61;54.20;99613.69;1740379;80;21042;-79
2021/05/31 09:33:59;;;;;;;3.40;2.42;;;;;;;15.62;54.28;99617.55;1733533;81;21042;-80
2021/05/31 09:36:27;;;;;;;3.12;2.02;;;;;;;15.67;54.51;99617.95;1738235;80;21023;-80
2021/05/31 09:38:53;;;;;;;3.00;2.00;;;;;;;15.68;54.92;99613.47;1740466;80;21003;-80
2021/05/31 09:41:32;;;;;;;3.12;2.00;;;;;;;15.73;54.71;99613.37;1738924;80;21052;-80
2021/05/31 09:44:04;;;;;;;3.12;1.80;;;;;;;15.79;54.57;99613.28;1733704;80;21053;-80
2021/05/31 09:46:43;;;;;;;3.55;1.80;;;;;;;15.76;54.00;99616.24;1742937;80;21066;-80
2021/05/31 09:49:22;;;;;;;2.80;2.00;;;;;;;15.69;53.69;99611.13;1736190;82;21412;-80
2021/05/31 09:51:51;;;;;;;7.10;4.70;;;;;;;15.76;53.39;99613.58;1742635;80;21031;-79
2021/05/31 09:54:43;;;;;;;24.45;14.63;;;;;;;15.82;53.06;99618.37;1742846;80;21058;-78
2021/05/31 09:57:30;;;;;;;2.67;1.85;;;;;;;15.83;53.29;99618.72;1746511;82;21051;-78
2021/05/31 10:00:01;;;;;;;3.47;1.80;;;;;;;15.76;53.28;99615.42;1727731;80;21101;-78
2021/05/31 10:03:19;;;;;;;2.12;1.70;;;;;;;15.73;53.64;99617.38;1720720;81;21011;-79
2021/05/31 10:09:59;;;;;;;3.40;1.98;;;;;;;15.74;52.84;99620.87;1720330;82;21610;-78
2021/05/31 10:12:28;;;;;;;2.50;1.80;;;;;;;15.53;53.13;99616.57;1718596;82;21484;-78
2021/05/31 10:14:55;;;;;;;2.50;2.10;;;;;;;15.42;54.00;99618.06;1715319;82;21070;-77
2021/05/31 10:17:24;;;;;;;5.55;1.98;;;;;;;15.39;54.51;99617.85;1718024;83;21058;-76
2021/05/31 10:19:50;;;;;;;2.83;2.00;;;;;;;15.44;54.68;99621.44;1723900;82;21019;-77
2021/05/31 10:22:17;;;;;;;2.35;2.08;;;;;;;15.48;54.13;99621.49;1715326;82;21550;-77
2021/05/31 10:24:44;;;;;;;4.12;2.20;;;;;;;15.54;53.83;99615.59;1722378;83;21054;-79
2021/05/31 10:27:14;;;;;;;3.58;2.20;;;;;;;15.62;53.58;99624.71;1725216;82;21097;-81
2021/05/31 10:29:43;;;;;;;6.05;2.27;;;;;;;15.57;53.86;99626.46;1717203;83;21088;-79
2021/05/31 10:32:11;;;;;;;4.67;2.20;;;;;;;15.55;54.10;99626.61;1690926;83;21047;-84
2021/05/31 10:34:47;;;;;;;5.42;2.30;;;;;;;15.50;54.32;99624.01;1721871;82;21007;-82
2021/05/31 10:37:28;;;;;;;4.15;2.17;;;;;;;15.48;54.83;99628.16;1716150;82;21094;-81
2021/05/31 10:40:03;;;;;;;5.47;2.40;;;;;;;15.52;54.52;99623.38;1714882;83;21066;-79
2021/05/31 10:42:49;;;;;;;6.37;2.40;;;;;;;15.54;54.50;99624.09;1722142;83;20991;-81
2021/05/31 10:45:24;;;;;;;5.40;2.30;;;;;;;15.61;54.51;99626.52;1723672;82;21514;-79
2021/05/31 10:48:19;;;;;;;3.83;2.77;;;;;;;15.61;54.82;99632.34;1720084;83;21065;-80
2021/05/31 10:50:49;;;;;;;6.05;2.87;;;;;;;15.59;54.95;99634.30;1719568;82;21090;-79
2021/05/31 10:53:32;;;;;;;3.62;2.80;;;;;;;15.51;55.73;99633.22;1718534;82;21043;-78
2021/05/31 10:56:10;;;;;;;4.85;2.75;;;;;;;15.48;56.23;99624.16;1720893;82;21617;-79
2021/05/31 10:58:47;;;;;;;6.05;2.80;;;;;;;15.44;56.05;99633.42;1716756;83;21136;-80
2021/05/31 11:01:30;;;;;;;5.05;2.20;;;;;;;15.43;55.99;99625.08;1711755;82;21064;-81
2021/05/31 11:04:06;;;;;;;6.47;2.67;;;;;;;15.47;55.98;99637.63;1720944;83;21093;-82
2021/05/31 11:06:38;;;;;;;7.08;2.60;;;;;;;15.50;55.84;99631.53;1700245;82;21655;-80
2021/05/31 11:09:20;;;;;;;5.53;2.50;;;;;;;15.56;55.45;99625.63;1722042;82;21133;-81
2021/05/31 11:11:51;;;;;;;8.03;2.33;;;;;;;15.60;55.28;99625.33;1714249;83;21719;-79
2021/05/31 11:14:43;;;;;;;6.05;2.20;;;;;;;15.75;55.33;99627.89;1708591;83;21074;-81
2021/05/31 11:17:18;;;;;;;3.62;2.27;;;;;;;15.84;54.33;99625.74;1645702;85;21075;-79
2021/05/31 11:19:49;;;;;;;3.60;2.22;;;;;;;15.91;54.27;99627.80;1667662;86;21071;-79
2021/05/31 11:22:21;;;;;;;7.65;2.50;;;;;;;15.99;54.58;99627.42;1670203;86;22194;-80
2021/05/31 11:25:10;;;;;;;4.25;2.20;;;;;;;16.14;54.51;99619.80;1670386;85;21622;-80
2021/05/31 11:27:39;;;;;;;5.10;2.52;;;;;;;16.29;54.13;99613.96;1671450;85;21058;-79
2021/05/31 11:30:12;;;;;;;9.60;4.03;;;;;;;16.46;54.62;99611.84;1654994;86;21082;-79
2021/05/31 11:32:39;;;;;;;5.60;2.20;;;;;;;16.63;54.27;99604.02;1717142;83;21050;-80
2021/05/31 11:35:08;;;;;;;4.83;2.20;;;;;;;16.75;53.02;99609.45;1716993;83;21038;-81
2021/05/31 11:37:37;;;;;;;4.45;2.55;;;;;;;16.80;52.50;99607.20;1716979;83;21014;-78
2021/05/31 11:40:07;;;;;;;4.12;2.20;;;;;;;16.84;52.69;99609.05;1709514;83;21034;-78
2021/05/31 11:42:38;;;;;;;3.60;2.10;;;;;;;16.80;51.96;99602.34;1716381;83;21086;-78
2021/05/31 11:45:03;;;;;;;5.67;2.10;;;;;;;16.80;51.73;99611.20;1716524;83;21050;-81
2021/05/31 11:47:30;;;;;;;5.47;2.30;;;;;;;16.76;51.24;99608.47;1701867;83;21046;-80
2021/05/31 11:49:57;;;;;;;3.08;1.90;;;;;;;16.74;51.48;99613.62;1654143;86;21082;-81
2021/05/31 11:52:27;;;;;;;2.58;2.00;;;;;;;16.66;50.69;99605.03;1667419;86;21187;-80
2021/05/31 11:54:54;;;;;;;3.83;2.30;;;;;;;16.54;51.25;99604.41;1653920;85;21617;-80
2021/05/31 11:57:21;;;;;;;3.17;1.57;;;;;;;16.42;51.46;99613.13;1642144;87;21130;-80
2021/05/31 11:59:55;;;;;;;2.95;1.87;;;;;;;16.31;51.66;99620.00;1657092;86;21648;-80
2021/05/31 12:02:25;;;;;;;4.10;1.60;;;;;;;16.23;51.42;99612.73;1667404;86;21554;-80
2021/05/31 12:04:53;;;;;;;3.40;1.95;;;;;;;16.25;51.12;99615.25;1706103;84;21594;-80
2021/05/31 12:07:23;;;;;;;2.90;1.80;;;;;;;16.27;50.87;99618.63;1709563;84;21083;-80
2021/05/31 12:09:52;;;;;;;3.90;1.95;;;;;;;16.26;51.40;99613.77;1693707;84;21119;-79
2021/05/31 12:12:21;;;;;;;3.85;1.75;;;;;;;16.29;51.09;99620.63;1697810;84;21567;-81
2021/05/31 12:14:53;;;;;;;3.08;1.70;;;;;;;16.30;50.96;99607.64;1719028;83;21077;-80
2021/05/31 12:17:23;;;;;;;5.00;2.95;;;;;;;16.32;51.23;99609.17;1716072;83;21046;-81
2021/05/31 12:19:50;;;;;;;4.85;2.12;;;;;;;16.34;51.37;99607.69;1703078;83;21058;-81
2021/05/31 12:22:20;;;;;;;1.98;1.60;;;;;;;16.43;51.12;99608.12;1655978;86;21472;-81
2021/05/31 12:24:48;;;;;;;3.15;1.70;;;;;;;16.50;50.27;99603.87;1721048;83;21042;-81
2021/05/31 12:27:17;;;;;;;2.08;1.85;;;;;;;16.50;50.09;99607.05;1712325;83;21073;-81
2021/05/31 12:29:48;;;;;;;4.03;2.20;;;;;;;16.48;50.40;99604.53;1695580;83;21058;-81
2021/05/31 12:32:17;;;;;;;2.42;1.62;;;;;;;16.46;50.09;99606.50;1719503;83;21003;-81
2021/05/31 12:34:45;;;;;;;4.97;1.80;;;;;;;16.37;49.99;99598.06;1692878;85;21118;-81
2021/05/31 12:37:13;;;;;;;3.75;1.75;;;;;;;16.26;50.61;99599.09;1692424;83;21038;-81
2021/05/31 12:39:45;;;;;;;3.67;2.00;;;;;;;16.16;51.43;99591.16;1656058;86;22488;-81
2021/05/31 12:42:12;;;;;;;4.37;2.05;;;;;;;16.16;51.61;99593.82;1702457;83;21022;-80
2021/05/31 12:44:40;;;;;;;4.20;2.25;;;;;;;16.14;51.62;99597.12;1655349;86;21126;-81
2021/05/31 12:47:17;;;;;;;3.12;1.65;;;;;;;16.10;51.85;99591.73;1692159;83;21062;-80
2021/05/31 12:49:53;;;;;;;3.67;1.65;;;;;;;16.10;51.34;99589.55;1651580;86;21082;-81